Time;durP1;ratioP1;P1;durP2;ratioP2;P2;SDS_P1;SDS_P2;PMS_P1;PMS_P2;Temp;Humidity;BMP_temperature;BMP_pressure;BME280_temperature;BME280_humidity;BME280_pressure;Samples;Min_cycle;Max_cycle;Signal;HPM_P1;HPM_P2
2022/07/06 05:53:01;;;;;;;3.80;2.30;;;;;;;;;;6216749;23;20025;-85
2022/07/06 05:55:27;;;;;;;2.10;1.90;;;;;;;;;;6216963;23;20436;-85
2022/07/06 05:57:53;;;;;;;3.22;2.45;;;;;;;;;;6216723;23;20051;-84
2022/07/06 09:21:26;;;;;;;2.03;1.77;;;;;;;;;;6188170;23;20009;-90
2022/07/06 09:23:56;;;;;;;2.20;2.00;;;;;;;;;;6216398;23;20013;-90
2022/07/06 09:26:23;;;;;;;3.75;1.92;;;;;;;;;;6191111;23;20011;-90
2022/07/06 09:28:48;;;;;;;1.83;1.73;;;;;;;;;;6215936;23;20015;-90
2022/07/06 09:31:14;;;;;;;2.63;2.00;;;;;;;;;;6217260;23;20327;-91
2022/07/06 09:34:05;;;;;;;3.22;1.90;;;;;;;;;;6217516;23;20004;-92
2022/07/06 09:36:39;;;;;;;2.10;1.90;;;;;;;;;;6191241;23;20009;-91
2022/07/06 09:39:24;;;;;;;2.13;1.75;;;;;;;;;;6217464;23;20035;-89
2022/07/06 09:41:52;;;;;;;1.90;1.58;;;;;;;;;;6190224;23;20008;-89
2022/07/06 09:44:20;;;;;;;3.72;1.80;;;;;;;;;;6190659;23;20063;-92
2022/07/06 09:46:47;;;;;;;1.58;1.40;;;;;;;;;;6217133;23;20083;-89
2022/07/06 09:49:17;;;;;;;4.10;1.80;;;;;;;;;;6217290;23;20054;-90
2022/07/06 09:51:44;;;;;;;2.53;1.60;;;;;;;;;;6219936;23;20028;-88
2022/07/06 09:54:10;;;;;;;1.95;1.40;;;;;;;;;;6192009;23;20004;-95
2022/07/06 09:56:40;;;;;;;2.33;1.73;;;;;;;;;;6191880;23;20027;-92
2022/07/06 09:59:09;;;;;;;3.42;1.63;;;;;;;;;;6221669;23;20004;-87
2022/07/06 10:01:35;;;;;;;2.30;2.17;;;;;;;;;;6191870;23;20008;-86
2022/07/06 10:04:01;;;;;;;2.28;1.88;;;;;;;;;;6190565;23;19996;-88
2022/07/06 10:06:26;;;;;;;4.15;2.30;;;;;;;;;;6216890;23;20007;-89
2022/07/06 10:08:55;;;;;;;3.25;2.33;;;;;;;;;;6190168;23;20032;-87
2022/07/06 10:11:21;;;;;;;2.83;2.20;;;;;;;;;;6216610;23;20012;-87
2022/07/06 10:13:50;;;;;;;2.33;2.13;;;;;;;;;;6216705;23;20000;-86
2022/07/06 10:16:16;;;;;;;4.60;2.23;;;;;;;;;;6216676;23;20005;-86
2022/07/06 10:18:42;;;;;;;3.50;2.50;;;;;;;;;;6190138;23;20012;-85
2022/07/06 10:21:08;;;;;;;2.63;2.42;;;;;;;;;;6216329;23;20013;-84
2022/07/06 10:23:35;;;;;;;2.58;2.38;;;;;;;;;;6189712;23;20416;-85
2022/07/06 10:26:01;;;;;;;3.50;2.58;;;;;;;;;;6216436;23;20004;-85
2022/07/06 10:28:27;;;;;;;3.63;3.05;;;;;;;;;;6216363;23;20047;-84
2022/07/06 10:30:53;;;;;;;6.22;3.13;;;;;;;;;;6216532;23;20004;-86
2022/07/06 10:33:19;;;;;;;4.13;3.03;;;;;;;;;;6189605;23;20013;-88
2022/07/06 10:35:45;;;;;;;4.63;2.53;;;;;;;;;;6216835;23;20005;-86
2022/07/06 10:38:11;;;;;;;3.63;3.20;;;;;;;;;;6216229;23;20455;-83
2022/07/06 10:43:22;;;;;;;4.90;3.30;;;;;;;;;;6216419;23;20442;-84
2022/07/06 10:45:48;;;;;;;3.15;2.85;;;;;;;;;;6216359;23;19997;-84
2022/07/06 10:48:15;;;;;;;4.45;2.88;;;;;;;;;;6190145;23;20009;-88
2022/07/06 10:50:43;;;;;;;2.95;2.75;;;;;;;;;;6189808;23;20482;-86
2022/07/06 10:53:18;;;;;;;2.97;2.70;;;;;;;;;;6216289;23;20004;-87
2022/07/06 10:55:50;;;;;;;2.50;2.30;;;;;;;;;;6189533;23;20012;-86
2022/07/06 10:58:34;;;;;;;2.70;2.50;;;;;;;;;;6216290;23;20008;-88
2022/07/06 11:01:00;;;;;;;2.90;2.70;;;;;;;;;;6189156;23;20484;-85
2022/07/06 11:03:34;;;;;;;2.97;2.50;;;;;;;;;;6216225;23;20000;-85
2022/07/06 11:06:21;;;;;;;4.95;2.45;;;;;;;;;;6216309;23;20051;-85
2022/07/06 11:08:50;;;;;;;3.30;2.53;;;;;;;;;;6216052;23;20007;-87
2022/07/06 11:11:31;;;;;;;2.53;2.33;;;;;;;;;;6216970;23;20001;-87
2022/07/06 11:13:56;;;;;;;2.25;2.08;;;;;;;;;;6218026;23;20486;-85
2022/07/06 11:16:26;;;;;;;4.50;2.33;;;;;;;;;;6218119;23;20008;-85
2022/07/06 11:19:05;;;;;;;4.00;2.28;;;;;;;;;;6218003;23;20009;-85
2022/07/06 11:21:35;;;;;;;2.60;2.20;;;;;;;;;;6191147;23;20043;-84
2022/07/06 11:24:01;;;;;;;8.20;2.03;;;;;;;;;;6218210;23;20008;-85
2022/07/06 11:26:27;;;;;;;3.83;2.47;;;;;;;;;;6219138;23;19997;-87
2022/07/06 11:28:53;;;;;;;3.47;2.00;;;;;;;;;;6217996;23;20011;-84
2022/07/06 11:31:19;;;;;;;2.95;2.05;;;;;;;;;;6218024;23;20013;-85
2022/07/06 11:33:46;;;;;;;2.72;1.75;;;;;;;;;;6218072;23;20000;-84
2022/07/06 11:36:19;;;;;;;2.33;1.98;;;;;;;;;;6217887;23;20416;-83
2022/07/06 11:38:46;;;;;;;2.55;2.08;;;;;;;;;;6217972;23;20441;-84
2022/07/06 11:41:13;;;;;;;1.75;1.60;;;;;;;;;;6218140;23;20001;-89
2022/07/06 11:43:42;;;;;;;3.15;1.80;;;;;;;;;;6218196;23;20013;-85
2022/07/06 11:46:21;;;;;;;2.03;1.90;;;;;;;;;;6218063;23;20012;-85
2022/07/06 17:06:55;;;;;;;2.45;2.22;;;;;;;;;;6202726;23;20468;-88
2022/07/06 17:09:21;;;;;;;2.20;2.00;;;;;;;;;;6216704;23;20016;-94
2022/07/06 17:11:47;;;;;;;2.95;2.60;;;;;;;;;;6221690;23;20011;-90
2022/07/06 17:14:13;;;;;;;3.38;2.90;;;;;;;;;;6210554;23;20023;-91
2022/07/06 17:16:38;;;;;;;2.53;2.33;;;;;;;;;;6218837;23;20476;-91
2022/07/06 17:19:04;;;;;;;3.22;2.33;;;;;;;;;;6218097;23;20434;-92
2022/07/06 17:21:29;;;;;;;2.40;2.15;;;;;;;;;;6194341;23;20005;-91
2022/07/06 17:23:55;;;;;;;2.55;2.00;;;;;;;;;;6191133;23;20035;-91
2022/07/06 17:26:21;;;;;;;2.67;2.30;;;;;;;;;;6219021;23;20079;-88
2022/07/06 17:28:46;;;;;;;2.25;2.13;;;;;;;;;;6190793;23;20332;-88
2022/07/06 17:31:11;;;;;;;2.95;2.20;;;;;;;;;;6216787;23;20009;-86
2022/07/06 17:33:37;;;;;;;1.98;1.77;;;;;;;;;;6216690;23;20027;-87
2022/07/06 17:36:03;;;;;;;2.33;2.13;;;;;;;;;;6216864;23;20012;-86
2022/07/06 17:38:30;;;;;;;2.13;1.98;;;;;;;;;;6216588;23;20028;-86
2022/07/06 17:40:55;;;;;;;2.30;2.08;;;;;;;;;;6215485;23;20004;-87
2022/07/06 17:43:21;;;;;;;2.00;1.80;;;;;;;;;;6216592;23;20004;-84
2022/07/06 17:45:46;;;;;;;2.67;2.00;;;;;;;;;;6216678;23;20293;-87
2022/07/06 17:48:12;;;;;;;2.42;2.22;;;;;;;;;;6216712;23;20009;-88
2022/07/06 17:50:37;;;;;;;2.40;2.10;;;;;;;;;;6215322;23;20004;-89
2022/07/06 17:53:03;;;;;;;2.83;2.05;;;;;;;;;;6215221;23;20036;-88
2022/07/06 17:55:28;;;;;;;3.17;2.10;;;;;;;;;;6216808;23;20498;-92
2022/07/06 17:57:54;;;;;;;2.22;1.83;;;;;;;;;;6217147;23;20004;-92
2022/07/06 18:00:19;;;;;;;4.07;2.30;;;;;;;;;;6189881;23;20368;-89
2022/07/06 18:02:45;;;;;;;2.30;2.15;;;;;;;;;;6216897;23;20004;-91
2022/07/06 18:05:12;;;;;;;3.35;3.05;;;;;;;;;;6190094;23;20443;-91
2022/07/06 18:07:38;;;;;;;4.10;2.75;;;;;;;;;;6215072;23;20013;-92
2022/07/06 18:10:06;;;;;;;2.63;2.42;;;;;;;;;;6215329;23;20313;-91
2022/07/06 18:12:32;;;;;;;2.53;2.33;;;;;;;;;;6215558;23;20010;-90
2022/07/06 18:14:57;;;;;;;2.97;2.25;;;;;;;;;;6190590;23;20083;-93
2022/07/06 18:17:24;;;;;;;2.72;1.98;;;;;;;;;;6191206;23;20008;-90
2022/07/06 18:19:53;;;;;;;2.55;2.35;;;;;;;;;;6215016;23;20004;-88
2022/07/06 18:22:19;;;;;;;3.10;2.00;;;;;;;;;;6216937;23;20004;-88
2022/07/06 18:24:45;;;;;;;3.63;2.00;;;;;;;;;;6216768;23;20429;-92
2022/07/06 18:27:10;;;;;;;2.42;2.20;;;;;;;;;;6190234;23;20000;-93
2022/07/06 18:29:37;;;;;;;2.03;1.80;;;;;;;;;;6192101;23;20017;-94
2022/07/06 18:32:03;;;;;;;2.65;2.10;;;;;;;;;;6191796;23;20088;-95
2022/07/06 18:34:29;;;;;;;2.30;2.05;;;;;;;;;;6216499;23;20007;-94
2022/07/06 18:36:54;;;;;;;2.13;2.03;;;;;;;;;;6190570;23;20332;-91
2022/07/06 18:39:20;;;;;;;2.25;2.05;;;;;;;;;;6191006;23;20001;-88
2022/07/06 18:41:46;;;;;;;5.07;2.80;;;;;;;;;;6216555;23;20379;-90
2022/07/06 18:44:12;;;;;;;2.20;2.00;;;;;;;;;;6216391;23;20016;-92
2022/07/06 18:46:37;;;;;;;2.83;2.45;;;;;;;;;;6215235;23;20387;-93
2022/07/06 18:49:03;;;;;;;3.47;2.10;;;;;;;;;;6215329;23;20012;-90
2022/07/06 18:51:29;;;;;;;2.45;1.95;;;;;;;;;;6190345;23;20028;-91
2022/07/06 18:53:55;;;;;;;3.53;2.17;;;;;;;;;;6215015;23;20008;-91
2022/07/06 18:56:21;;;;;;;2.22;2.03;;;;;;;;;;6190400;23;20071;-93
2022/07/06 18:58:50;;;;;;;2.45;2.25;;;;;;;;;;6215220;23;20008;-94
2022/07/06 19:01:16;;;;;;;2.28;2.08;;;;;;;;;;6190558;23;20004;-93
2022/07/06 19:03:41;;;;;;;2.10;1.95;;;;;;;;;;6190489;23;20011;-91
2022/07/06 19:06:07;;;;;;;3.00;2.70;;;;;;;;;;6190739;23;20000;-91
2022/07/06 19:08:32;;;;;;;5.75;5.20;;;;;;;;;;6215695;23;20305;-90
2022/07/06 19:10:58;;;;;;;6.45;4.53;;;;;;;;;;6190462;23;20017;-90
2022/07/06 19:13:23;;;;;;;3.55;3.25;;;;;;;;;;6190052;23;20466;-91
2022/07/06 19:15:49;;;;;;;3.85;2.33;;;;;;;;;;6216695;23;20067;-89
2022/07/06 19:18:15;;;;;;;3.72;2.33;;;;;;;;;;6215109;23;20005;-90
2022/07/06 19:20:41;;;;;;;1.88;1.60;;;;;;;;;;6217014;23;20001;-90
2022/07/06 19:23:06;;;;;;;2.22;1.95;;;;;;;;;;6216741;23;20489;-89
2022/07/06 19:25:32;;;;;;;2.22;2.03;;;;;;;;;;6190447;23;20088;-89
2022/07/06 19:27:57;;;;;;;3.65;2.42;;;;;;;;;;6215120;23;20005;-90
2022/07/06 19:30:23;;;;;;;2.20;2.10;;;;;;;;;;6190049;23;20012;-90
2022/07/06 19:32:48;;;;;;;2.53;2.33;;;;;;;;;;6191432;23;20119;-89
2022/07/06 19:35:14;;;;;;;2.60;2.40;;;;;;;;;;6192232;23;20005;-90
2022/07/06 19:37:40;;;;;;;3.10;2.08;;;;;;;;;;6192308;23;20423;-90
2022/07/06 19:40:06;;;;;;;2.42;2.13;;;;;;;;;;6192058;23;20083;-90
2022/07/06 19:42:32;;;;;;;3.50;2.40;;;;;;;;;;6217558;23;20004;-94
2022/07/06 19:44:57;;;;;;;3.30;3.00;;;;;;;;;;6192564;23;20067;-94
2022/07/06 19:47:23;;;;;;;3.58;2.75;;;;;;;;;;6217924;23;20012;-92
2022/07/06 19:49:48;;;;;;;4.15;2.80;;;;;;;;;;6219199;23;20012;-94
2022/07/06 19:52:14;;;;;;;3.08;2.80;;;;;;;;;;6192722;23;20449;-93
2022/07/06 19:54:39;;;;;;;2.90;2.70;;;;;;;;;;6192302;23;20416;-94
2022/07/06 19:57:05;;;;;;;2.63;2.42;;;;;;;;;;6192466;23;20087;-95
2022/07/06 19:59:31;;;;;;;2.90;2.67;;;;;;;;;;6191706;23;20004;-90
2022/07/06 20:01:57;;;;;;;2.47;2.28;;;;;;;;;;6218104;23;20396;-87
2022/07/06 20:04:23;;;;;;;2.00;1.88;;;;;;;;;;6218685;23;20000;-88
2022/07/06 20:06:49;;;;;;;2.42;2.22;;;;;;;;;;6217987;23;20070;-88
2022/07/06 20:09:15;;;;;;;2.67;2.47;;;;;;;;;;6218236;23;20016;-87
2022/07/06 20:11:42;;;;;;;2.60;2.30;;;;;;;;;;6191449;23;20313;-88
2022/07/06 20:14:08;;;;;;;2.53;2.33;;;;;;;;;;6217933;23;20007;-90
2022/07/06 20:16:34;;;;;;;4.63;2.50;;;;;;;;;;6218089;23;20013;-95
2022/07/06 20:19:00;;;;;;;2.50;2.30;;;;;;;;;;6217982;23;20032;-94
2022/07/06 20:21:26;;;;;;;2.20;1.92;;;;;;;;;;6192517;23;20009;-93
2022/07/06 20:23:52;;;;;;;3.03;2.38;;;;;;;;;;6217287;23;20001;-94
2022/07/06 20:26:17;;;;;;;1.98;1.83;;;;;;;;;;6192664;23;20008;-93
2022/07/06 20:28:43;;;;;;;4.82;2.42;;;;;;;;;;6192503;23;20007;-95
2022/07/06 20:31:09;;;;;;;4.85;2.47;;;;;;;;;;6193312;23;20016;-94
2022/07/06 20:33:35;;;;;;;2.30;2.03;;;;;;;;;;6192449;23;20012;-93
2022/07/06 20:36:03;;;;;;;2.30;2.10;;;;;;;;;;6216636;23;20012;-91
2022/07/06 20:38:28;;;;;;;2.50;2.30;;;;;;;;;;6192136;23;20001;-93
2022/07/06 20:40:54;;;;;;;2.60;2.08;;;;;;;;;;6219241;23;20080;-93
2022/07/06 20:43:19;;;;;;;2.72;2.53;;;;;;;;;;6217006;23;20055;-91
2022/07/06 20:45:44;;;;;;;2.80;2.30;;;;;;;;;;6220544;23;20000;-90
2022/07/06 20:48:13;;;;;;;2.55;2.35;;;;;;;;;;6222257;23;20000;-93
2022/07/06 20:50:38;;;;;;;4.78;2.30;;;;;;;;;;6227088;23;20440;-93
2022/07/06 20:53:05;;;;;;;2.65;2.47;;;;;;;;;;6192418;23;20055;-88
2022/07/06 20:55:31;;;;;;;3.15;2.13;;;;;;;;;;6217450;23;20009;-93
2022/07/06 20:57:57;;;;;;;2.63;2.40;;;;;;;;;;6218766;23;20011;-92
2022/07/06 21:00:22;;;;;;;2.10;2.00;;;;;;;;;;6191670;23;20095;-91
2022/07/06 21:02:48;;;;;;;2.30;2.10;;;;;;;;;;6191333;23;20005;-89
2022/07/06 21:05:14;;;;;;;3.00;2.65;;;;;;;;;;6217877;23;20009;-91
2022/07/06 21:07:39;;;;;;;2.58;2.38;;;;;;;;;;6216290;23;20012;-91
2022/07/06 21:10:06;;;;;;;3.25;2.05;;;;;;;;;;6191625;23;20004;-91
2022/07/06 21:12:31;;;;;;;3.10;2.50;;;;;;;;;;6216550;23;20015;-90
2022/07/06 21:14:57;;;;;;;2.95;2.70;;;;;;;;;;6191302;23;20040;-89
2022/07/06 21:17:22;;;;;;;3.25;2.63;;;;;;;;;;6218035;23;20147;-90
2022/07/06 21:19:48;;;;;;;3.28;2.65;;;;;;;;;;6191240;23;20328;-91
2022/07/06 21:22:13;;;;;;;2.95;2.60;;;;;;;;;;6217872;23;20000;-91
2022/07/06 21:24:39;;;;;;;4.43;2.72;;;;;;;;;;6191118;23;20004;-90
2022/07/06 21:27:04;;;;;;;2.45;2.25;;;;;;;;;;6191439;23;20005;-90
2022/07/06 21:29:30;;;;;;;2.67;2.47;;;;;;;;;;6215907;23;20008;-89
2022/07/06 21:31:56;;;;;;;4.00;2.70;;;;;;;;;;6218206;23;20465;-91
2022/07/06 21:34:21;;;;;;;2.92;2.22;;;;;;;;;;6191009;23;20000;-89
2022/07/06 21:36:47;;;;;;;2.58;2.38;;;;;;;;;;6217594;23;20079;-91
2022/07/06 21:39:12;;;;;;;2.38;2.17;;;;;;;;;;6191017;23;20039;-91
2022/07/06 21:41:37;;;;;;;5.50;2.38;;;;;;;;;;6217561;23;20420;-90
2022/07/06 21:44:03;;;;;;;11.07;9.73;;;;;;;;;;6217512;23;20391;-89
2022/07/06 21:46:29;;;;;;;5.88;5.38;;;;;;;;;;6191601;23;20458;-93
2022/07/06 21:48:54;;;;;;;3.17;2.85;;;;;;;;;;6216166;23;20323;-88
2022/07/06 21:51:19;;;;;;;3.00;2.72;;;;;;;;;;6218260;23;20479;-89
2022/07/06 21:53:45;;;;;;;4.03;2.63;;;;;;;;;;6191123;23;20013;-90
2022/07/06 21:56:11;;;;;;;3.00;2.20;;;;;;;;;;6190375;23;20010;-92
2022/07/06 21:58:37;;;;;;;3.72;2.47;;;;;;;;;;6191910;23;20004;-96
2022/07/06 22:01:03;;;;;;;2.88;2.55;;;;;;;;;;6218430;23;20005;-96
2022/07/06 22:03:29;;;;;;;2.60;2.40;;;;;;;;;;6218163;23;20408;-94
2022/07/06 22:05:54;;;;;;;4.35;2.80;;;;;;;;;;6216886;23;20001;-94
